createdAt,value
2022-10-07T00:24:35.671Z,10.70
2022-10-07T00:54:47.532Z,10.30
2022-10-07T01:25:13.330Z,9.90
2022-10-07T01:55:47.475Z,9.50
2022-10-07T02:25:58.925Z,9.00
2022-10-07T02:56:13.385Z,8.70
2022-10-07T03:26:22.345Z,8.50
2022-10-07T03:56:31.582Z,8.10
2022-10-07T04:26:43.978Z,8.00
2022-10-07T04:56:54.613Z,7.80
2022-10-07T05:27:06.954Z,7.60
2022-10-07T05:57:18.628Z,8.00
2022-10-07T06:27:34.389Z,11.00
2022-10-07T06:57:56.090Z,12.20
2022-10-07T07:28:05.107Z,15.10
2022-10-07T07:58:15.166Z,18.30
2022-10-07T08:28:25.565Z,28.90
2022-10-07T08:59:12.528Z,33.30
2022-10-07T09:29:27.253Z,30.90
2022-10-07T09:59:37.083Z,34.80
2022-10-07T10:29:58.815Z,35.70
2022-10-07T11:00:14.120Z,28.20
2022-10-07T11:30:38.786Z,26.00
2022-10-07T12:00:50.270Z,24.30
2022-10-07T12:31:05.916Z,23.40
2022-10-07T13:01:25.747Z,22.90
2022-10-07T13:31:36.102Z,22.40
2022-10-07T14:01:45.110Z,22.10
2022-10-07T14:32:25.237Z,21.60
2022-10-07T15:02:37.046Z,21.20
2022-10-07T15:32:48.330Z,20.80
2022-10-07T16:03:03.353Z,20.20
2022-10-07T16:33:13.407Z,19.20
2022-10-07T17:03:23.115Z,17.70
2022-10-07T17:33:31.355Z,16.50
2022-10-07T18:03:40.697Z,15.50
2022-10-07T18:33:50.347Z,14.70
2022-10-07T19:04:01.757Z,14.10
2022-10-07T19:34:16.410Z,13.80
2022-10-07T20:04:25.659Z,13.30
2022-10-07T20:34:34.108Z,12.80
2022-10-07T21:04:42.881Z,12.30
2022-10-07T21:34:57.492Z,11.70
2022-10-07T22:05:09.410Z,11.40
2022-10-07T22:35:30.564Z,11.00
2022-10-07T23:05:40.541Z,11.00
2022-10-07T23:35:49.085Z,10.60
